sensor_id;sensor_type;location;lat;lon;timestamp;P1;durP1;ratioP1;P2;durP2;ratioP2
68888;SDS011;55930;47.412;8.790;2023-12-07T00:00:49;18.07;;;14.03;;
68888;SDS011;55930;47.412;8.790;2023-12-07T00:04:12;15.30;;;12.35;;
68888;SDS011;55930;47.412;8.790;2023-12-07T00:07:32;15.83;;;11.83;;
68888;SDS011;55930;47.412;8.790;2023-12-07T00:10:52;15.67;;;11.77;;
68888;SDS011;55930;47.412;8.790;2023-12-07T00:14:13;14.67;;;11.97;;
68888;SDS011;55930;47.412;8.790;2023-12-07T00:17:33;16.30;;;12.50;;
68888;SDS011;55930;47.412;8.790;2023-12-07T00:20:54;17.50;;;13.60;;
68888;SDS011;55930;47.412;8.790;2023-12-07T00:24:14;16.90;;;12.97;;
68888;SDS011;55930;47.412;8.790;2023-12-07T00:27:37;16.40;;;12.93;;
68888;SDS011;55930;47.412;8.790;2023-12-07T00:30:57;18.00;;;12.83;;
68888;SDS011;55930;47.412;8.790;2023-12-07T00:34:17;20.40;;;13.57;;
68888;SDS011;55930;47.412;8.790;2023-12-07T00:37:38;18.60;;;12.77;;
68888;SDS011;55930;47.412;8.790;2023-12-07T00:40:59;17.30;;;13.03;;
68888;SDS011;55930;47.412;8.790;2023-12-07T00:44:19;17.03;;;12.50;;
68888;SDS011;55930;47.412;8.790;2023-12-07T00:47:39;17.67;;;12.67;;
68888;SDS011;55930;47.412;8.790;2023-12-07T00:51:00;14.57;;;11.80;;
68888;SDS011;55930;47.412;8.790;2023-12-07T00:54:20;17.93;;;11.97;;
68888;SDS011;55930;47.412;8.790;2023-12-07T00:57:41;17.23;;;12.27;;
68888;SDS011;55930;47.412;8.790;2023-12-07T01:01:01;16.93;;;12.80;;
68888;SDS011;55930;47.412;8.790;2023-12-07T01:04:24;18.45;;;11.93;;
68888;SDS011;55930;47.412;8.790;2023-12-07T01:07:44;17.20;;;13.20;;
68888;SDS011;55930;47.412;8.790;2023-12-07T01:11:05;18.20;;;13.60;;
68888;SDS011;55930;47.412;8.790;2023-12-07T01:14:25;19.83;;;15.20;;
68888;SDS011;55930;47.412;8.790;2023-12-07T01:17:45;21.10;;;14.27;;
68888;SDS011;55930;47.412;8.790;2023-12-07T01:21:06;22.73;;;15.57;;
68888;SDS011;55930;47.412;8.790;2023-12-07T01:24:26;21.60;;;15.53;;
68888;SDS011;55930;47.412;8.790;2023-12-07T01:27:47;20.03;;;14.43;;
68888;SDS011;55930;47.412;8.790;2023-12-07T01:31:08;20.92;;;14.45;;
68888;SDS011;55930;47.412;8.790;2023-12-07T01:34:28;23.53;;;16.37;;
68888;SDS011;55930;47.412;8.790;2023-12-07T01:37:49;22.10;;;15.23;;
68888;SDS011;55930;47.412;8.790;2023-12-07T01:41:09;20.77;;;14.87;;
68888;SDS011;55930;47.412;8.790;2023-12-07T01:44:30;21.70;;;16.10;;
68888;SDS011;55930;47.412;8.790;2023-12-07T01:52:43;19.17;;;14.55;;
68888;SDS011;55930;47.412;8.790;2023-12-07T02:01:12;18.55;;;14.07;;
68888;SDS011;55930;47.412;8.790;2023-12-07T02:09:46;20.77;;;14.60;;
68888;SDS011;55930;47.412;8.790;2023-12-07T02:21:30;20.63;;;15.27;;
68888;SDS011;55930;47.412;8.790;2023-12-07T02:38:22;19.75;;;14.93;;
68888;SDS011;55930;47.412;8.790;2023-12-07T02:42:19;18.98;;;14.65;;
68888;SDS011;55930;47.412;8.790;2023-12-07T02:59:01;20.30;;;14.32;;
68888;SDS011;55930;47.412;8.790;2023-12-07T03:02:34;20.77;;;13.85;;
68888;SDS011;55930;47.412;8.790;2023-12-07T03:06:04;21.52;;;15.90;;
68888;SDS011;55930;47.412;8.790;2023-12-07T03:09:40;18.58;;;14.35;;
68888;SDS011;55930;47.412;8.790;2023-12-07T03:13:08;18.77;;;13.77;;
68888;SDS011;55930;47.412;8.790;2023-12-07T03:16:38;19.90;;;15.35;;
68888;SDS011;55930;47.412;8.790;2023-12-07T03:20:14;20.80;;;14.57;;
68888;SDS011;55930;47.412;8.790;2023-12-07T03:23:42;22.40;;;15.27;;
68888;SDS011;55930;47.412;8.790;2023-12-07T03:27:13;19.30;;;14.48;;
68888;SDS011;55930;47.412;8.790;2023-12-07T03:30:39;21.08;;;14.60;;
68888;SDS011;55930;47.412;8.790;2023-12-07T03:34:12;18.42;;;13.63;;
68888;SDS011;55930;47.412;8.790;2023-12-07T03:37:38;19.45;;;13.80;;
68888;SDS011;55930;47.412;8.790;2023-12-07T03:41:10;16.48;;;12.55;;
68888;SDS011;55930;47.412;8.790;2023-12-07T03:44:34;18.60;;;13.20;;
68888;SDS011;55930;47.412;8.790;2023-12-07T03:47:54;20.20;;;13.67;;
68888;SDS011;55930;47.412;8.790;2023-12-07T03:51:27;19.60;;;13.55;;
68888;SDS011;55930;47.412;8.790;2023-12-07T03:54:50;20.63;;;14.25;;
68888;SDS011;55930;47.412;8.790;2023-12-07T03:58:16;17.92;;;13.52;;
68888;SDS011;55930;47.412;8.790;2023-12-07T04:01:48;19.98;;;14.18;;
68888;SDS011;55930;47.412;8.790;2023-12-07T04:05:08;21.23;;;14.77;;
68888;SDS011;55930;47.412;8.790;2023-12-07T04:08:29;18.93;;;13.83;;
68888;SDS011;55930;47.412;8.790;2023-12-07T04:11:49;19.43;;;14.07;;
68888;SDS011;55930;47.412;8.790;2023-12-07T04:15:12;21.67;;;13.70;;
68888;SDS011;55930;47.412;8.790;2023-12-07T04:18:32;19.80;;;14.60;;
68888;SDS011;55930;47.412;8.790;2023-12-07T04:21:58;21.85;;;15.55;;
68888;SDS011;55930;47.412;8.790;2023-12-07T04:25:23;22.17;;;15.20;;
68888;SDS011;55930;47.412;8.790;2023-12-07T04:28:44;21.53;;;13.80;;
68888;SDS011;55930;47.412;8.790;2023-12-07T04:32:06;20.93;;;14.67;;
68888;SDS011;55930;47.412;8.790;2023-12-07T04:35:27;18.23;;;13.50;;
68888;SDS011;55930;47.412;8.790;2023-12-07T04:38:48;22.02;;;13.55;;
68888;SDS011;55930;47.412;8.790;2023-12-07T04:42:11;21.25;;;14.07;;
68888;SDS011;55930;47.412;8.790;2023-12-07T04:45:31;21.33;;;14.50;;
68888;SDS011;55930;47.412;8.790;2023-12-07T04:48:51;20.53;;;14.20;;
68888;SDS011;55930;47.412;8.790;2023-12-07T04:52:14;21.50;;;14.98;;
68888;SDS011;55930;47.412;8.790;2023-12-07T04:55:35;16.73;;;11.90;;
68888;SDS011;55930;47.412;8.790;2023-12-07T04:58:55;19.67;;;14.00;;
68888;SDS011;55930;47.412;8.790;2023-12-07T05:02:16;21.93;;;14.73;;
68888;SDS011;55930;47.412;8.790;2023-12-07T05:05:37;20.45;;;13.98;;
68888;SDS011;55930;47.412;8.790;2023-12-07T05:08:57;19.87;;;13.37;;
68888;SDS011;55930;47.412;8.790;2023-12-07T05:12:20;20.65;;;14.52;;
68888;SDS011;55930;47.412;8.790;2023-12-07T05:15:41;18.75;;;13.95;;
68888;SDS011;55930;47.412;8.790;2023-12-07T05:19:01;23.63;;;14.23;;
68888;SDS011;55930;47.412;8.790;2023-12-07T05:22:22;21.25;;;14.20;;
68888;SDS011;55930;47.412;8.790;2023-12-07T05:25:43;21.63;;;14.27;;
68888;SDS011;55930;47.412;8.790;2023-12-07T05:29:03;23.67;;;13.90;;
68888;SDS011;55930;47.412;8.790;2023-12-07T05:32:24;18.80;;;13.30;;
68888;SDS011;55930;47.412;8.790;2023-12-07T05:35:44;16.63;;;13.00;;
68888;SDS011;55930;47.412;8.790;2023-12-07T05:39:05;21.17;;;13.83;;
68888;SDS011;55930;47.412;8.790;2023-12-07T05:42:27;19.55;;;13.85;;
68888;SDS011;55930;47.412;8.790;2023-12-07T05:45:47;18.07;;;13.60;;
68888;SDS011;55930;47.412;8.790;2023-12-07T05:49:08;19.27;;;13.77;;
68888;SDS011;55930;47.412;8.790;2023-12-07T05:52:30;20.38;;;13.07;;
68888;SDS011;55930;47.412;8.790;2023-12-07T05:55:53;17.40;;;13.17;;
68888;SDS011;55930;47.412;8.790;2023-12-07T05:59:16;18.02;;;13.05;;
68888;SDS011;55930;47.412;8.790;2023-12-07T06:02:37;18.48;;;12.38;;
68888;SDS011;55930;47.412;8.790;2023-12-07T06:05:57;17.27;;;12.53;;
68888;SDS011;55930;47.412;8.790;2023-12-07T06:09:20;18.08;;;13.00;;
68888;SDS011;55930;47.412;8.790;2023-12-07T06:12:40;17.70;;;12.40;;
68888;SDS011;55930;47.412;8.790;2023-12-07T06:16:01;14.23;;;11.00;;
68888;SDS011;55930;47.412;8.790;2023-12-07T06:22:43;16.47;;;11.53;;
68888;SDS011;55930;47.412;8.790;2023-12-07T06:26:03;15.57;;;11.17;;
68888;SDS011;55930;47.412;8.790;2023-12-07T06:29:27;19.95;;;11.90;;
68888;SDS011;55930;47.412;8.790;2023-12-07T06:32:47;17.50;;;12.87;;
68888;SDS011;55930;47.412;8.790;2023-12-07T06:36:10;15.90;;;11.07;;
68888;SDS011;55930;47.412;8.790;2023-12-07T06:39:30;16.80;;;10.90;;
68888;SDS011;55930;47.412;8.790;2023-12-07T06:42:50;15.83;;;10.93;;
68888;SDS011;55930;47.412;8.790;2023-12-07T06:46:11;12.57;;;9.13;;
68888;SDS011;55930;47.412;8.790;2023-12-07T06:49:36;15.20;;;10.13;;
68888;SDS011;55930;47.412;8.790;2023-12-07T06:52:56;13.83;;;9.60;;
68888;SDS011;55930;47.412;8.790;2023-12-07T06:56:17;14.27;;;10.37;;
68888;SDS011;55930;47.412;8.790;2023-12-07T06:59:37;12.93;;;8.37;;
68888;SDS011;55930;47.412;8.790;2023-12-07T07:03:00;12.55;;;9.15;;
68888;SDS011;55930;47.412;8.790;2023-12-07T07:06:23;12.75;;;8.32;;
68888;SDS011;55930;47.412;8.790;2023-12-07T07:09:46;12.32;;;8.02;;
68888;SDS011;55930;47.412;8.790;2023-12-07T07:13:06;12.20;;;9.10;;
68888;SDS011;55930;47.412;8.790;2023-12-07T07:16:29;12.65;;;9.68;;
68888;SDS011;55930;47.412;8.790;2023-12-07T07:19:50;15.77;;;10.83;;
68888;SDS011;55930;47.412;8.790;2023-12-07T07:23:10;39.53;;;16.00;;
68888;SDS011;55930;47.412;8.790;2023-12-07T07:26:32;24.02;;;15.23;;
68888;SDS011;55930;47.412;8.790;2023-12-07T07:29:52;27.67;;;15.37;;
68888;SDS011;55930;47.412;8.790;2023-12-07T07:33:12;24.57;;;15.73;;
68888;SDS011;55930;47.412;8.790;2023-12-07T07:36:33;21.50;;;16.37;;
68888;SDS011;55930;47.412;8.790;2023-12-07T07:39:53;16.30;;;13.07;;
68888;SDS011;55930;47.412;8.790;2023-12-07T07:43:17;18.35;;;12.15;;
68888;SDS011;55930;47.412;8.790;2023-12-07T07:46:39;18.60;;;13.70;;
68888;SDS011;55930;47.412;8.790;2023-12-07T07:50:00;16.17;;;11.30;;
68888;SDS011;55930;47.412;8.790;2023-12-07T07:53:25;14.07;;;10.98;;
68888;SDS011;55930;47.412;8.790;2023-12-07T07:56:45;12.63;;;9.33;;
68888;SDS011;55930;47.412;8.790;2023-12-07T08:00:06;8.73;;;7.37;;
68888;SDS011;55930;47.412;8.790;2023-12-07T08:03:28;9.82;;;7.43;;
68888;SDS011;55930;47.412;8.790;2023-12-07T08:06:48;9.10;;;7.53;;
68888;SDS011;55930;47.412;8.790;2023-12-07T08:10:09;7.97;;;7.17;;
68888;SDS011;55930;47.412;8.790;2023-12-07T08:13:29;11.13;;;8.90;;
68888;SDS011;55930;47.412;8.790;2023-12-07T08:16:50;9.13;;;7.13;;
68888;SDS011;55930;47.412;8.790;2023-12-07T08:20:13;9.32;;;7.80;;
68888;SDS011;55930;47.412;8.790;2023-12-07T08:23:34;19.10;;;7.65;;
68888;SDS011;55930;47.412;8.790;2023-12-07T08:26:55;28.63;;;8.13;;
68888;SDS011;55930;47.412;8.790;2023-12-07T08:30:16;26.60;;;6.93;;
68888;SDS011;55930;47.412;8.790;2023-12-07T08:33:36;21.57;;;7.00;;
68888;SDS011;55930;47.412;8.790;2023-12-07T08:36:59;17.35;;;6.25;;
68888;SDS011;55930;47.412;8.790;2023-12-07T08:40:23;34.33;;;5.88;;
68888;SDS011;55930;47.412;8.790;2023-12-07T08:43:43;66.80;;;7.27;;
68888;SDS011;55930;47.412;8.790;2023-12-07T08:47:04;45.87;;;6.57;;
68888;SDS011;55930;47.412;8.790;2023-12-07T08:50:25;55.08;;;6.47;;
68888;SDS011;55930;47.412;8.790;2023-12-07T08:53:45;25.97;;;6.80;;
68888;SDS011;55930;47.412;8.790;2023-12-07T08:57:06;67.70;;;7.17;;
68888;SDS011;55930;47.412;8.790;2023-12-07T09:00:27;29.35;;;5.53;;
68888;SDS011;55930;47.412;8.790;2023-12-07T09:03:47;10.43;;;5.90;;
68888;SDS011;55930;47.412;8.790;2023-12-07T09:07:08;36.40;;;6.07;;
68888;SDS011;55930;47.412;8.790;2023-12-07T09:10:29;55.33;;;7.07;;
68888;SDS011;55930;47.412;8.790;2023-12-07T09:13:49;12.50;;;5.87;;
68888;SDS011;55930;47.412;8.790;2023-12-07T09:17:10;24.88;;;6.70;;
68888;SDS011;55930;47.412;8.790;2023-12-07T09:20:33;28.75;;;6.75;;
68888;SDS011;55930;47.412;8.790;2023-12-07T09:23:53;29.73;;;7.43;;
68888;SDS011;55930;47.412;8.790;2023-12-07T09:27:13;26.30;;;6.47;;
68888;SDS011;55930;47.412;8.790;2023-12-07T09:30:34;11.83;;;5.40;;
68888;SDS011;55930;47.412;8.790;2023-12-07T09:33:57;8.30;;;6.70;;
68888;SDS011;55930;47.412;8.790;2023-12-07T09:37:18;7.73;;;6.50;;
68888;SDS011;55930;47.412;8.790;2023-12-07T09:40:39;6.97;;;5.97;;
68888;SDS011;55930;47.412;8.790;2023-12-07T09:43:59;8.73;;;6.03;;
68888;SDS011;55930;47.412;8.790;2023-12-07T09:47:20;23.98;;;18.48;;
68888;SDS011;55930;47.412;8.790;2023-12-07T09:50:41;16.37;;;9.87;;
68888;SDS011;55930;47.412;8.790;2023-12-07T09:54:01;14.43;;;11.47;;
68888;SDS011;55930;47.412;8.790;2023-12-07T09:57:23;16.65;;;8.02;;
68888;SDS011;55930;47.412;8.790;2023-12-07T10:00:43;27.17;;;8.77;;
68888;SDS011;55930;47.412;8.790;2023-12-07T10:07:53;11.40;;;8.82;;
68888;SDS011;55930;47.412;8.790;2023-12-07T10:11:16;8.40;;;6.88;;
68888;SDS011;55930;47.412;8.790;2023-12-07T10:17:58;20.23;;;6.30;;
68888;SDS011;55930;47.412;8.790;2023-12-07T10:21:32;10.07;;;8.77;;
68888;SDS011;55930;47.412;8.790;2023-12-07T10:24:53;14.68;;;6.80;;
68888;SDS011;55930;47.412;8.790;2023-12-07T10:28:13;17.67;;;6.60;;
68888;SDS011;55930;47.412;8.790;2023-12-07T10:31:37;8.35;;;7.25;;
68888;SDS011;55930;47.412;8.790;2023-12-07T10:34:58;11.03;;;9.93;;
68888;SDS011;55930;47.412;8.790;2023-12-07T10:38:21;14.23;;;12.80;;
68888;SDS011;55930;47.412;8.790;2023-12-07T10:41:42;24.63;;;22.23;;
68888;SDS011;55930;47.412;8.790;2023-12-07T10:45:04;9.50;;;7.35;;
68888;SDS011;55930;47.412;8.790;2023-12-07T10:48:26;11.48;;;10.23;;
68888;SDS011;55930;47.412;8.790;2023-12-07T10:55:20;9.10;;;7.97;;
68888;SDS011;55930;47.412;8.790;2023-12-07T10:58:44;9.23;;;7.90;;
68888;SDS011;55930;47.412;8.790;2023-12-07T11:05:28;9.98;;;8.88;;
68888;SDS011;55930;47.412;8.790;2023-12-07T11:08:51;10.25;;;9.23;;
68888;SDS011;55930;47.412;8.790;2023-12-07T11:12:18;9.77;;;8.77;;
68888;SDS011;55930;47.412;8.790;2023-12-07T11:15:50;14.10;;;10.77;;
68888;SDS011;55930;47.412;8.790;2023-12-07T11:22:52;13.13;;;9.27;;
68888;SDS011;55930;47.412;8.790;2023-12-07T11:26:12;9.73;;;8.70;;
68888;SDS011;55930;47.412;8.790;2023-12-07T11:29:33;9.73;;;8.70;;
68888;SDS011;55930;47.412;8.790;2023-12-07T11:32:55;10.55;;;9.35;;
68888;SDS011;55930;47.412;8.790;2023-12-07T11:36:16;9.20;;;8.20;;
68888;SDS011;55930;47.412;8.790;2023-12-07T11:39:37;9.27;;;7.70;;
68888;SDS011;55930;47.412;8.790;2023-12-07T11:42:59;9.60;;;8.60;;
68888;SDS011;55930;47.412;8.790;2023-12-07T11:46:20;10.10;;;8.82;;
68888;SDS011;55930;47.412;8.790;2023-12-07T11:49:41;9.87;;;8.83;;
68888;SDS011;55930;47.412;8.790;2023-12-07T11:53:01;10.37;;;8.90;;
68888;SDS011;55930;47.412;8.790;2023-12-07T11:56:24;9.80;;;8.80;;
68888;SDS011;55930;47.412;8.790;2023-12-07T11:59:44;10.15;;;9.10;;
68888;SDS011;55930;47.412;8.790;2023-12-07T12:03:07;11.35;;;9.52;;
68888;SDS011;55930;47.412;8.790;2023-12-07T12:06:31;11.80;;;10.60;;
68888;SDS011;55930;47.412;8.790;2023-12-07T12:09:52;12.65;;;10.55;;
68888;SDS011;55930;47.412;8.790;2023-12-07T12:13:12;10.37;;;9.27;;
68888;SDS011;55930;47.412;8.790;2023-12-07T12:16:33;11.13;;;9.70;;
68888;SDS011;55930;47.412;8.790;2023-12-07T12:19:53;11.70;;;10.47;;
68888;SDS011;55930;47.412;8.790;2023-12-07T12:23:14;11.00;;;8.25;;
68888;SDS011;55930;47.412;8.790;2023-12-07T12:26:35;10.53;;;8.97;;
68888;SDS011;55930;47.412;8.790;2023-12-07T12:29:58;9.95;;;8.95;;
68888;SDS011;55930;47.412;8.790;2023-12-07T12:33:20;11.07;;;9.73;;
68888;SDS011;55930;47.412;8.790;2023-12-07T12:36:40;9.73;;;8.37;;
68888;SDS011;55930;47.412;8.790;2023-12-07T12:40:07;10.57;;;8.93;;
68888;SDS011;55930;47.412;8.790;2023-12-07T12:43:28;10.50;;;9.40;;
68888;SDS011;55930;47.412;8.790;2023-12-07T12:46:49;11.40;;;10.20;;
68888;SDS011;55930;47.412;8.790;2023-12-07T12:50:09;15.33;;;12.50;;
68888;SDS011;55930;47.412;8.790;2023-12-07T12:53:31;12.00;;;10.68;;
68888;SDS011;55930;47.412;8.790;2023-12-07T12:56:51;10.60;;;9.27;;
68888;SDS011;55930;47.412;8.790;2023-12-07T13:00:12;11.37;;;10.13;;
68888;SDS011;55930;47.412;8.790;2023-12-07T13:03:32;11.30;;;10.10;;
68888;SDS011;55930;47.412;8.790;2023-12-07T13:06:53;12.33;;;10.50;;
68888;SDS011;55930;47.412;8.790;2023-12-07T13:10:16;11.10;;;9.90;;
68888;SDS011;55930;47.412;8.790;2023-12-07T13:13:37;11.15;;;9.95;;
68888;SDS011;55930;47.412;8.790;2023-12-07T13:16:59;11.82;;;10.57;;
68888;SDS011;55930;47.412;8.790;2023-12-07T13:20:20;11.67;;;10.47;;
68888;SDS011;55930;47.412;8.790;2023-12-07T13:23:40;11.57;;;10.43;;
68888;SDS011;55930;47.412;8.790;2023-12-07T13:27:01;12.27;;;10.87;;
68888;SDS011;55930;47.412;8.790;2023-12-07T13:30:21;11.95;;;10.20;;
68888;SDS011;55930;47.412;8.790;2023-12-07T13:33:42;12.03;;;10.90;;
68888;SDS011;55930;47.412;8.790;2023-12-07T13:37:02;10.90;;;9.80;;
68888;SDS011;55930;47.412;8.790;2023-12-07T13:40:25;11.63;;;10.43;;
68888;SDS011;55930;47.412;8.790;2023-12-07T13:43:46;12.32;;;10.27;;
68888;SDS011;55930;47.412;8.790;2023-12-07T13:47:08;11.80;;;10.60;;
68888;SDS011;55930;47.412;8.790;2023-12-07T13:50:29;11.00;;;9.90;;
68888;SDS011;55930;47.412;8.790;2023-12-07T13:53:49;13.47;;;10.27;;
68888;SDS011;55930;47.412;8.790;2023-12-07T13:57:15;11.90;;;10.70;;
68888;SDS011;55930;47.412;8.790;2023-12-07T14:00:38;11.80;;;10.52;;
68888;SDS011;55930;47.412;8.790;2023-12-07T14:03:59;13.05;;;11.48;;
68888;SDS011;55930;47.412;8.790;2023-12-07T14:07:22;12.82;;;11.07;;
68888;SDS011;55930;47.412;8.790;2023-12-07T14:10:43;11.85;;;10.30;;
68888;SDS011;55930;47.412;8.790;2023-12-07T14:14:03;13.67;;;12.27;;
68888;SDS011;55930;47.412;8.790;2023-12-07T14:17:24;13.73;;;11.60;;
68888;SDS011;55930;47.412;8.790;2023-12-07T14:20:46;13.20;;;11.40;;
68888;SDS011;55930;47.412;8.790;2023-12-07T14:24:09;13.77;;;12.00;;
68888;SDS011;55930;47.412;8.790;2023-12-07T14:27:30;13.05;;;11.48;;
68888;SDS011;55930;47.412;8.790;2023-12-07T14:30:50;15.50;;;12.03;;
68888;SDS011;55930;47.412;8.790;2023-12-07T14:34:16;14.70;;;11.98;;
68888;SDS011;55930;47.412;8.790;2023-12-07T14:37:36;14.10;;;12.23;;
68888;SDS011;55930;47.412;8.790;2023-12-07T14:40:57;13.73;;;11.73;;
68888;SDS011;55930;47.412;8.790;2023-12-07T14:44:17;15.60;;;12.40;;
68888;SDS011;55930;47.412;8.790;2023-12-07T14:47:38;15.00;;;12.13;;
68888;SDS011;55930;47.412;8.790;2023-12-07T14:50:58;16.37;;;12.23;;
68888;SDS011;55930;47.412;8.790;2023-12-07T14:54:19;15.23;;;12.77;;
68888;SDS011;55930;47.412;8.790;2023-12-07T14:57:39;15.10;;;13.10;;
68888;SDS011;55930;47.412;8.790;2023-12-07T15:01:00;15.73;;;13.07;;
68888;SDS011;55930;47.412;8.790;2023-12-07T15:04:20;17.73;;;13.97;;
68888;SDS011;55930;47.412;8.790;2023-12-07T15:07:41;15.82;;;13.25;;
68888;SDS011;55930;47.412;8.790;2023-12-07T15:11:04;16.17;;;13.73;;
68888;SDS011;55930;47.412;8.790;2023-12-07T15:14:24;19.00;;;15.50;;
68888;SDS011;55930;47.412;8.790;2023-12-07T15:17:44;22.50;;;18.03;;
68888;SDS011;55930;47.412;8.790;2023-12-07T15:21:05;14.00;;;12.23;;
68888;SDS011;55930;47.412;8.790;2023-12-07T15:24:26;15.77;;;12.73;;
68888;SDS011;55930;47.412;8.790;2023-12-07T15:27:46;14.27;;;12.23;;
68888;SDS011;55930;47.412;8.790;2023-12-07T15:31:07;15.40;;;12.30;;
68888;SDS011;55930;47.412;8.790;2023-12-07T15:34:29;27.52;;;20.92;;
68888;SDS011;55930;47.412;8.790;2023-12-07T15:37:52;23.58;;;19.25;;
68888;SDS011;55930;47.412;8.790;2023-12-07T15:41:13;18.50;;;14.90;;
68888;SDS011;55930;47.412;8.790;2023-12-07T15:44:33;19.33;;;14.63;;
68888;SDS011;55930;47.412;8.790;2023-12-07T15:47:53;20.57;;;16.80;;
68888;SDS011;55930;47.412;8.790;2023-12-07T15:51:14;21.73;;;17.03;;
68888;SDS011;55930;47.412;8.790;2023-12-07T15:54:34;22.40;;;17.97;;
68888;SDS011;55930;47.412;8.790;2023-12-07T15:57:57;23.50;;;16.40;;
68888;SDS011;55930;47.412;8.790;2023-12-07T16:01:17;24.17;;;18.05;;
68888;SDS011;55930;47.412;8.790;2023-12-07T16:04:38;40.47;;;19.17;;
68888;SDS011;55930;47.412;8.790;2023-12-07T16:07:59;29.63;;;16.63;;
68888;SDS011;55930;47.412;8.790;2023-12-07T16:11:19;20.53;;;15.63;;
68888;SDS011;55930;47.412;8.790;2023-12-07T16:14:40;21.10;;;15.07;;
68888;SDS011;55930;47.412;8.790;2023-12-07T16:18:00;22.10;;;16.43;;
68888;SDS011;55930;47.412;8.790;2023-12-07T16:21:26;19.02;;;15.00;;
68888;SDS011;55930;47.412;8.790;2023-12-07T16:24:46;19.97;;;14.97;;
68888;SDS011;55930;47.412;8.790;2023-12-07T16:28:07;16.93;;;14.63;;
68888;SDS011;55930;47.412;8.790;2023-12-07T16:31:27;19.33;;;14.47;;
68888;SDS011;55930;47.412;8.790;2023-12-07T16:34:48;17.23;;;12.67;;
68888;SDS011;55930;47.412;8.790;2023-12-07T16:38:10;16.65;;;12.80;;
68888;SDS011;55930;47.412;8.790;2023-12-07T16:41:31;16.10;;;12.37;;
68888;SDS011;55930;47.412;8.790;2023-12-07T16:44:52;17.80;;;13.55;;
68888;SDS011;55930;47.412;8.790;2023-12-07T16:48:14;15.38;;;11.55;;
68888;SDS011;55930;47.412;8.790;2023-12-07T16:51:34;14.17;;;11.17;;
68888;SDS011;55930;47.412;8.790;2023-12-07T16:54:57;14.57;;;11.45;;
68888;SDS011;55930;47.412;8.790;2023-12-07T16:58:19;16.10;;;12.88;;
68888;SDS011;55930;47.412;8.790;2023-12-07T17:01:40;16.52;;;12.75;;
68888;SDS011;55930;47.412;8.790;2023-12-07T17:05:01;14.17;;;10.80;;
68888;SDS011;55930;47.412;8.790;2023-12-07T17:08:21;13.40;;;10.67;;
68888;SDS011;55930;47.412;8.790;2023-12-07T17:11:42;14.18;;;10.52;;
68888;SDS011;55930;47.412;8.790;2023-12-07T17:15:03;12.30;;;10.50;;
68888;SDS011;55930;47.412;8.790;2023-12-07T17:18:24;11.50;;;9.68;;
68888;SDS011;55930;47.412;8.790;2023-12-07T17:21:44;20.77;;;15.17;;
68888;SDS011;55930;47.412;8.790;2023-12-07T17:25:06;20.48;;;14.50;;
68888;SDS011;55930;47.412;8.790;2023-12-07T17:28:26;17.40;;;13.13;;
68888;SDS011;55930;47.412;8.790;2023-12-07T17:31:47;16.23;;;12.43;;
68888;SDS011;55930;47.412;8.790;2023-12-07T17:35:07;15.47;;;12.37;;
68888;SDS011;55930;47.412;8.790;2023-12-07T17:38:29;14.40;;;10.90;;
68888;SDS011;55930;47.412;8.790;2023-12-07T17:41:52;13.60;;;10.47;;
68888;SDS011;55930;47.412;8.790;2023-12-07T17:45:12;17.73;;;12.77;;
68888;SDS011;55930;47.412;8.790;2023-12-07T17:48:33;18.57;;;13.77;;
68888;SDS011;55930;47.412;8.790;2023-12-07T17:51:53;20.70;;;14.53;;
68888;SDS011;55930;47.412;8.790;2023-12-07T17:55:13;12.97;;;10.03;;
68888;SDS011;55930;47.412;8.790;2023-12-07T17:58:34;22.10;;;15.13;;
68888;SDS011;55930;47.412;8.790;2023-12-07T18:01:56;21.52;;;15.07;;
68888;SDS011;55930;47.412;8.790;2023-12-07T18:05:17;19.43;;;14.47;;
68888;SDS011;55930;47.412;8.790;2023-12-07T18:08:37;15.23;;;11.80;;
68888;SDS011;55930;47.412;8.790;2023-12-07T18:11:57;14.87;;;11.63;;
68888;SDS011;55930;47.412;8.790;2023-12-07T18:15:19;16.55;;;12.07;;
68888;SDS011;55930;47.412;8.790;2023-12-07T18:18:39;15.43;;;11.50;;
68888;SDS011;55930;47.412;8.790;2023-12-07T18:21:59;16.47;;;12.33;;
68888;SDS011;55930;47.412;8.790;2023-12-07T18:25:20;19.33;;;13.27;;
68888;SDS011;55930;47.412;8.790;2023-12-07T18:28:40;18.63;;;13.97;;
68888;SDS011;55930;47.412;8.790;2023-12-07T18:32:01;18.75;;;14.63;;
68888;SDS011;55930;47.412;8.790;2023-12-07T18:35:21;20.73;;;13.30;;
68888;SDS011;55930;47.412;8.790;2023-12-07T18:38:42;17.70;;;12.30;;
68888;SDS011;55930;47.412;8.790;2023-12-07T18:42:02;18.83;;;11.33;;
68888;SDS011;55930;47.412;8.790;2023-12-07T18:45:23;16.42;;;11.98;;
68888;SDS011;55930;47.412;8.790;2023-12-07T18:48:44;15.07;;;11.83;;
68888;SDS011;55930;47.412;8.790;2023-12-07T18:52:04;17.97;;;13.07;;
68888;SDS011;55930;47.412;8.790;2023-12-07T18:58:48;17.83;;;12.35;;
68888;SDS011;55930;47.412;8.790;2023-12-07T19:02:08;20.77;;;14.37;;
68888;SDS011;55930;47.412;8.790;2023-12-07T19:05:29;20.07;;;13.60;;
68888;SDS011;55930;47.412;8.790;2023-12-07T19:08:49;19.90;;;14.63;;
68888;SDS011;55930;47.412;8.790;2023-12-07T19:12:09;21.77;;;15.80;;
68888;SDS011;55930;47.412;8.790;2023-12-07T19:15:32;28.03;;;18.43;;
68888;SDS011;55930;47.412;8.790;2023-12-07T19:18:53;25.63;;;16.90;;
68888;SDS011;55930;47.412;8.790;2023-12-07T19:22:16;27.90;;;16.45;;
68888;SDS011;55930;47.412;8.790;2023-12-07T19:25:37;25.60;;;16.60;;
68888;SDS011;55930;47.412;8.790;2023-12-07T19:28:57;51.53;;;17.97;;
68888;SDS011;55930;47.412;8.790;2023-12-07T19:32:19;31.67;;;17.25;;
68888;SDS011;55930;47.412;8.790;2023-12-07T19:35:41;43.83;;;18.33;;
68888;SDS011;55930;47.412;8.790;2023-12-07T19:39:04;49.33;;;18.48;;
68888;SDS011;55930;47.412;8.790;2023-12-07T19:42:24;43.97;;;18.57;;
68888;SDS011;55930;47.412;8.790;2023-12-07T19:45:45;39.63;;;17.93;;
68888;SDS011;55930;47.412;8.790;2023-12-07T19:49:05;48.77;;;18.77;;
68888;SDS011;55930;47.412;8.790;2023-12-07T19:52:25;42.50;;;19.33;;
68888;SDS011;55930;47.412;8.790;2023-12-07T19:55:46;47.70;;;17.70;;
68888;SDS011;55930;47.412;8.790;2023-12-07T19:59:06;28.77;;;17.53;;
68888;SDS011;55930;47.412;8.790;2023-12-07T20:02:27;23.33;;;16.27;;
68888;SDS011;55930;47.412;8.790;2023-12-07T20:05:47;27.57;;;17.47;;
68888;SDS011;55930;47.412;8.790;2023-12-07T20:09:07;25.57;;;16.47;;
68888;SDS011;55930;47.412;8.790;2023-12-07T20:12:28;24.70;;;16.63;;
68888;SDS011;55930;47.412;8.790;2023-12-07T20:15:48;25.40;;;16.70;;
68888;SDS011;55930;47.412;8.790;2023-12-07T20:19:09;26.10;;;17.13;;
68888;SDS011;55930;47.412;8.790;2023-12-07T20:22:30;39.20;;;19.92;;
68888;SDS011;55930;47.412;8.790;2023-12-07T20:25:51;31.67;;;19.77;;
68888;SDS011;55930;47.412;8.790;2023-12-07T20:29:15;42.05;;;19.50;;
68888;SDS011;55930;47.412;8.790;2023-12-07T20:32:36;90.38;;;20.80;;
68888;SDS011;55930;47.412;8.790;2023-12-07T20:35:57;57.93;;;20.43;;
68888;SDS011;55930;47.412;8.790;2023-12-07T20:39:19;57.50;;;20.63;;
68888;SDS011;55930;47.412;8.790;2023-12-07T20:42:39;40.67;;;21.60;;
68888;SDS011;55930;47.412;8.790;2023-12-07T20:46:00;55.17;;;20.73;;
68888;SDS011;55930;47.412;8.790;2023-12-07T20:49:20;70.80;;;19.87;;
68888;SDS011;55930;47.412;8.790;2023-12-07T20:52:41;78.23;;;22.27;;
68888;SDS011;55930;47.412;8.790;2023-12-07T20:56:01;88.23;;;20.83;;
68888;SDS011;55930;47.412;8.790;2023-12-07T20:59:24;47.22;;;22.02;;